createdAt,value
2022-12-16T00:01:26.902Z,100847.69
2022-12-16T00:03:55.531Z,100821.81
2022-12-16T00:06:24.068Z,100831.34
2022-12-16T00:08:51.998Z,100818.44
2022-12-16T00:11:20.150Z,100801.22
2022-12-16T00:13:47.561Z,100845.16
2022-12-16T00:16:16.786Z,100837.44
2022-12-16T00:18:43.555Z,100812.41
2022-12-16T00:21:11.027Z,100820.06
2022-12-16T00:23:39.681Z,100833.84
2022-12-16T00:26:06.843Z,100861.31
2022-12-16T00:28:34.234Z,100845.81
2022-12-16T00:31:00.937Z,100847.50
2022-12-16T00:33:29.060Z,100863.91
2022-12-16T00:35:56.550Z,100840.69
2022-12-16T00:38:25.992Z,100858.75
2022-12-16T00:40:52.910Z,100774.34
2022-12-16T00:43:20.475Z,100819.09
2022-12-16T00:45:47.990Z,100831.22
2022-12-16T00:48:15.232Z,100832.94
2022-12-16T00:50:43.829Z,100831.19
2022-12-16T00:53:10.456Z,100829.53
2022-12-16T00:55:37.224Z,100852.69
2022-12-16T00:58:04.058Z,100831.16
2022-12-16T01:00:30.678Z,100835.50
2022-12-16T01:02:57.517Z,100839.84
2022-12-16T01:05:27.547Z,100853.50
2022-12-16T01:07:55.892Z,100825.03
2022-12-16T01:10:25.003Z,100837.88
2022-12-16T01:12:52.184Z,100848.22
2022-12-16T01:15:19.619Z,100844.69
2022-12-16T01:17:46.869Z,100842.13
2022-12-16T01:20:14.463Z,100840.44
2022-12-16T01:22:41.630Z,100840.38
2022-12-16T01:25:09.879Z,100827.56
2022-12-16T01:27:36.540Z,100827.44
2022-12-16T01:30:03.608Z,100821.34
2022-12-16T01:32:30.417Z,100810.06
2022-12-16T01:34:57.479Z,100818.69
2022-12-16T01:37:24.601Z,100824.78
2022-12-16T01:39:52.361Z,100830.63
2022-12-16T01:42:21.738Z,100834.13
2022-12-16T01:44:52.199Z,100811.75
2022-12-16T01:47:28.600Z,100821.25
2022-12-16T01:49:55.160Z,100823.81
2022-12-16T01:52:33.056Z,100823.88
2022-12-16T01:55:18.485Z,100782.59
2022-12-16T01:57:50.429Z,100792.16
2022-12-16T02:00:17.601Z,100805.13
2022-12-16T02:02:45.579Z,100783.50
2022-12-16T02:05:22.376Z,100798.16
2022-12-16T02:08:16.464Z,100804.31
2022-12-16T02:10:43.272Z,100805.09
2022-12-16T02:13:22.713Z,100797.38
2022-12-16T02:15:57.169Z,100796.50
2022-12-16T02:18:48.678Z,100803.44
2022-12-16T02:21:52.540Z,100798.16
2022-12-16T02:24:50.270Z,100796.41
2022-12-16T02:27:55.000Z,100793.88
2022-12-16T02:30:47.097Z,100796.47
2022-12-16T02:33:26.531Z,100791.28
2022-12-16T02:36:05.148Z,100750.81
2022-12-16T02:38:57.501Z,100771.56
2022-12-16T02:41:27.810Z,100773.19
2022-12-16T02:44:07.501Z,100756.94
2022-12-16T02:46:57.164Z,100750.91
2022-12-16T02:49:23.825Z,100774.19
2022-12-16T02:51:50.480Z,100761.97
2022-12-16T02:54:17.837Z,100765.25
2022-12-16T02:57:08.962Z,100776.47
2022-12-16T02:59:56.132Z,100757.69
2022-12-16T03:02:28.786Z,100768.94
2022-12-16T03:05:06.266Z,100754.28
2022-12-16T03:07:36.991Z,100750.03
2022-12-16T03:10:08.668Z,100756.78
2022-12-16T03:12:38.376Z,100740.44
2022-12-16T03:15:05.830Z,100748.94
2022-12-16T03:17:32.880Z,100739.47
2022-12-16T03:20:24.824Z,100743.03
2022-12-16T03:22:54.340Z,100729.97
2022-12-16T03:25:22.672Z,100742.88
2022-12-16T03:28:12.141Z,100753.22
2022-12-16T03:30:46.019Z,100754.88
2022-12-16T03:33:30.179Z,100750.63
2022-12-16T03:36:07.290Z,100733.34
2022-12-16T03:38:36.072Z,100743.66
2022-12-16T03:41:05.423Z,100752.22
2022-12-16T03:43:32.503Z,100728.97
2022-12-16T03:46:04.396Z,100753.06
2022-12-16T03:48:31.171Z,100743.47
2022-12-16T03:50:57.877Z,100725.28
2022-12-16T03:53:27.024Z,100688.25
2022-12-16T03:55:54.828Z,100677.03
2022-12-16T03:58:22.031Z,100710.72
2022-12-16T04:00:48.801Z,100693.31
2022-12-16T04:03:15.529Z,100720.78
2022-12-16T04:05:42.381Z,100725.75
2022-12-16T04:08:09.034Z,100694.84
2022-12-16T04:10:54.358Z,100720.66
2022-12-16T04:13:40.373Z,100637.00
2022-12-16T04:16:32.373Z,100712.69
2022-12-16T04:19:17.484Z,100673.81
2022-12-16T04:22:02.482Z,100677.28
2022-12-16T04:24:30.893Z,100677.31
2022-12-16T04:27:16.218Z,100689.53
2022-12-16T04:30:02.756Z,100682.38
2022-12-16T04:32:53.653Z,100715.03
2022-12-16T04:35:38.831Z,100703.84
2022-12-16T04:38:23.953Z,100691.81
2022-12-16T04:41:09.278Z,100685.50
2022-12-16T04:43:54.724Z,100689.06
2022-12-16T04:46:40.325Z,100708.06
2022-12-16T04:49:26.045Z,100694.34
2022-12-16T04:52:11.817Z,100703.66
2022-12-16T04:54:57.147Z,100700.16
2022-12-16T04:57:42.359Z,100674.19
2022-12-16T05:00:28.808Z,100712.97
2022-12-16T05:03:15.890Z,100693.00
2022-12-16T05:06:01.574Z,100656.94
2022-12-16T05:08:47.141Z,100705.13
2022-12-16T05:11:32.469Z,100618.09
2022-12-16T05:14:17.768Z,100680.84
2022-12-16T05:17:03.104Z,100648.22
2022-12-16T05:19:48.206Z,100656.13
2022-12-16T05:22:33.769Z,100687.72
2022-12-16T05:25:18.952Z,100671.84
2022-12-16T05:28:09.080Z,100611.72
2022-12-16T05:30:54.557Z,100639.09
2022-12-16T05:33:41.358Z,100700.06
2022-12-16T05:36:26.648Z,100679.69
2022-12-16T05:39:12.421Z,100679.84
2022-12-16T05:41:58.309Z,100677.25
2022-12-16T05:44:43.471Z,100652.88
2022-12-16T05:47:29.306Z,100690.13
2022-12-16T05:50:14.728Z,100656.63
2022-12-16T05:53:00.184Z,100672.97
2022-12-16T05:55:45.539Z,100680.72
2022-12-16T05:58:30.762Z,100668.91
2022-12-16T06:01:16.009Z,100664.63
2022-12-16T06:04:01.283Z,100603.66
2022-12-16T06:06:46.627Z,100623.66
2022-12-16T06:09:31.828Z,100582.31
2022-12-16T06:12:17.184Z,100621.09
2022-12-16T06:15:02.471Z,100626.22
2022-12-16T06:17:47.765Z,100622.06
2022-12-16T06:20:33.055Z,100619.59
2022-12-16T06:23:22.533Z,100617.81
2022-12-16T06:26:10.662Z,100632.47
2022-12-16T06:28:55.739Z,100602.25
2022-12-16T06:31:40.997Z,100632.44
2022-12-16T06:34:26.199Z,100606.47
2022-12-16T06:37:11.436Z,100622.78
2022-12-16T06:39:56.544Z,100567.44
2022-12-16T06:42:42.042Z,100569.31
2022-12-16T06:45:32.875Z,100619.41
2022-12-16T06:48:20.161Z,100632.47
2022-12-16T06:51:05.364Z,100626.25
2022-12-16T06:53:50.640Z,100610.00
2022-12-16T06:56:36.339Z,100639.19
2022-12-16T06:59:21.755Z,100634.94
2022-12-16T07:02:07.148Z,100609.00
2022-12-16T07:04:53.265Z,100618.56
2022-12-16T07:07:39.123Z,100613.28
2022-12-16T07:10:25.178Z,100586.81
2022-12-16T07:13:10.440Z,100593.59
2022-12-16T07:15:55.627Z,100590.97
2022-12-16T07:18:40.763Z,100574.47
2022-12-16T07:21:43.067Z,100578.44
2022-12-16T07:24:31.595Z,100556.38
2022-12-16T07:27:17.170Z,100626.13
2022-12-16T07:30:02.150Z,100533.59
2022-12-16T07:32:47.315Z,100602.72
2022-12-16T07:35:32.500Z,100563.41
2022-12-16T07:38:17.776Z,100559.28
2022-12-16T07:41:06.115Z,100583.22
2022-12-16T07:43:51.414Z,100601.22
2022-12-16T07:46:36.846Z,100549.38
2022-12-16T07:49:22.142Z,100571.78
2022-12-16T07:52:07.189Z,100566.63
2022-12-16T07:54:52.476Z,100538.66
2022-12-16T07:57:38.273Z,100599.81
2022-12-16T08:00:23.825Z,100549.00
2022-12-16T08:03:14.052Z,100567.41
2022-12-16T08:05:59.566Z,100536.38
2022-12-16T08:08:44.971Z,100581.22
2022-12-16T08:11:30.305Z,100543.44
2022-12-16T08:14:15.382Z,100584.84
2022-12-16T08:17:00.824Z,100602.28
2022-12-16T08:19:46.283Z,100584.34
2022-12-16T08:22:31.471Z,100586.16
2022-12-16T08:25:16.911Z,100572.41
2022-12-16T08:28:02.868Z,100553.31
2022-12-16T08:30:48.280Z,100608.22
2022-12-16T08:33:41.042Z,100591.31
2022-12-16T08:36:26.386Z,100567.47
2022-12-16T08:39:11.774Z,100605.44
2022-12-16T08:41:57.141Z,100530.63
2022-12-16T08:44:42.380Z,100567.63
2022-12-16T08:47:28.238Z,100559.84
2022-12-16T08:50:13.382Z,100576.09
2022-12-16T08:52:58.601Z,100571.50
2022-12-16T08:55:43.804Z,100527.13
2022-12-16T08:58:28.982Z,100607.31
2022-12-16T09:01:14.404Z,100567.47
2022-12-16T09:03:59.923Z,100582.13
2022-12-16T09:06:45.500Z,100607.72
2022-12-16T09:09:30.730Z,100529.94
2022-12-16T09:12:16.007Z,100556.47
2022-12-16T09:15:01.335Z,100512.72
2022-12-16T09:17:47.021Z,100562.00
2022-12-16T09:20:32.296Z,100557.81
2022-12-16T09:23:21.543Z,100559.88
2022-12-16T09:26:06.744Z,100552.25
2022-12-16T09:28:52.197Z,100559.81
2022-12-16T09:31:37.827Z,100571.13
2022-12-16T09:34:23.345Z,100564.97
2022-12-16T09:37:08.601Z,100564.00
2022-12-16T09:39:54.407Z,100594.97
2022-12-16T09:43:08.914Z,100587.63
2022-12-16T09:46:09.741Z,100582.28
2022-12-16T09:49:04.094Z,100528.97
2022-12-16T09:51:50.689Z,100545.66
2022-12-16T09:54:42.485Z,100538.97
2022-12-16T09:57:28.563Z,100545.00
2022-12-16T10:00:21.922Z,100558.03
2022-12-16T10:03:09.590Z,100557.22
2022-12-16T10:06:12.106Z,100536.47
2022-12-16T10:09:07.097Z,100540.91
2022-12-16T10:12:24.782Z,100546.13
2022-12-16T10:15:38.325Z,100533.19
2022-12-16T10:18:47.631Z,100534.22
2022-12-16T10:21:42.318Z,100561.84
2022-12-16T10:24:34.970Z,100555.75
2022-12-16T10:27:33.357Z,100506.66
2022-12-16T10:30:20.759Z,100540.38
2022-12-16T10:33:08.958Z,100498.28
2022-12-16T10:36:03.024Z,100515.34
2022-12-16T10:38:58.374Z,100542.16
2022-12-16T10:41:48.185Z,100544.81
2022-12-16T10:44:44.983Z,100451.22
2022-12-16T10:47:30.643Z,100499.56
2022-12-16T10:50:17.029Z,100502.16
2022-12-16T10:53:23.889Z,100494.38
2022-12-16T10:56:36.792Z,100534.03
2022-12-16T10:59:25.026Z,100493.59
2022-12-16T11:02:38.025Z,100524.75
2022-12-16T11:05:42.205Z,100520.63
2022-12-16T11:08:45.294Z,100484.50
2022-12-16T11:11:47.768Z,100516.38
2022-12-16T11:14:50.326Z,100527.59
2022-12-16T11:17:47.009Z,100474.34
2022-12-16T11:20:32.257Z,100515.59
2022-12-16T11:23:43.748Z,100521.34
2022-12-16T11:26:36.799Z,100463.56
2022-12-16T11:29:33.536Z,100506.44
2022-12-16T11:32:48.192Z,100474.72
2022-12-16T11:35:37.140Z,100444.56
2022-12-16T11:38:27.808Z,100456.94
2022-12-16T11:41:14.983Z,100415.88
2022-12-16T11:44:23.925Z,100400.47
2022-12-16T11:47:09.313Z,100465.94
2022-12-16T11:49:54.962Z,100466.03
2022-12-16T11:52:41.866Z,100484.84
2022-12-16T11:56:05.374Z,100456.50
2022-12-16T11:58:51.615Z,100475.56
2022-12-16T12:01:46.227Z,100437.72
2022-12-16T12:04:31.995Z,100461.91
2022-12-16T12:07:26.541Z,100459.31
2022-12-16T12:10:47.115Z,100443.81
2022-12-16T12:13:57.500Z,100449.88
2022-12-16T12:16:57.941Z,100441.34
2022-12-16T12:19:58.519Z,100369.25
2022-12-16T12:22:58.129Z,100417.31
2022-12-16T12:26:11.261Z,100437.13
2022-12-16T12:29:02.402Z,100430.22
2022-12-16T12:32:14.455Z,100400.19
2022-12-16T12:35:03.257Z,100429.38
2022-12-16T12:38:05.835Z,100377.91
2022-12-16T12:41:09.002Z,100425.94
2022-12-16T12:44:01.072Z,100436.22
2022-12-16T12:47:00.631Z,100430.22
2022-12-16T12:50:07.238Z,100387.31
2022-12-16T12:53:14.404Z,100423.38
2022-12-16T12:56:28.056Z,100423.41
2022-12-16T12:59:18.987Z,100364.19
2022-12-16T13:02:05.958Z,100406.22
2022-12-16T13:04:53.021Z,100394.16
2022-12-16T13:07:38.972Z,100380.44
2022-12-16T13:10:39.583Z,100421.66
2022-12-16T13:13:34.285Z,100413.06
2022-12-16T13:16:22.873Z,100334.16
2022-12-16T13:19:55.127Z,100408.81
2022-12-16T13:23:00.403Z,100328.16
2022-12-16T13:26:01.701Z,100407.06
2022-12-16T13:28:53.020Z,100359.84
2022-12-16T13:31:39.876Z,100380.47
2022-12-16T13:34:33.636Z,100327.22
2022-12-16T13:37:28.216Z,100328.06
2022-12-16T13:40:38.490Z,100357.28
2022-12-16T13:43:25.725Z,100385.59
2022-12-16T13:46:20.413Z,100394.06
2022-12-16T13:49:12.065Z,100385.56
2022-12-16T13:55:05.460Z,100382.19
2022-12-16T13:57:56.455Z,100323.03
2022-12-16T14:00:44.085Z,100346.19
2022-12-16T14:03:54.331Z,100314.44
2022-12-16T14:06:44.424Z,100322.16
2022-12-16T14:09:51.428Z,100366.75
2022-12-16T14:13:09.243Z,100359.06
2022-12-16T14:16:06.813Z,100346.16
2022-12-16T14:19:21.652Z,100372.78
2022-12-16T14:22:17.594Z,100364.19
2022-12-16T14:25:03.299Z,100369.34
2022-12-16T14:27:53.169Z,100323.03
2022-12-16T14:30:44.085Z,100357.34
2022-12-16T14:33:36.185Z,100310.13
2022-12-16T14:36:21.582Z,100329.03
2022-12-16T14:39:08.293Z,100372.78
2022-12-16T14:41:53.624Z,100342.75
2022-12-16T14:44:44.237Z,100372.78
2022-12-16T14:47:40.197Z,100353.03
2022-12-16T14:50:38.462Z,100322.16
2022-12-16T14:53:36.015Z,100321.31
2022-12-16T14:56:36.157Z,100350.47
2022-12-16T14:59:26.759Z,100329.84
2022-12-16T15:02:15.914Z,100307.56
2022-12-16T15:05:02.218Z,100348.75
2022-12-16T15:11:01.941Z,100293.00
2022-12-16T15:13:47.640Z,100337.59
2022-12-16T15:16:43.160Z,100317.00
2022-12-16T15:19:15.716Z,100339.31
2022-12-16T15:19:33.610Z,100323.03
2022-12-16T15:22:20.147Z,100271.56
2022-12-16T15:25:06.522Z,100276.72
2022-12-16T15:27:56.073Z,100336.75
2022-12-16T15:30:56.666Z,100347.88
2022-12-16T15:33:45.278Z,100348.75
2022-12-16T15:36:46.882Z,100353.88
2022-12-16T15:39:52.549Z,100291.28
2022-12-16T15:42:44.681Z,100298.16
2022-12-16T15:45:45.557Z,100300.72
2022-12-16T15:48:45.208Z,100353.88
2022-12-16T15:51:40.322Z,100326.44
2022-12-16T15:54:35.176Z,100320.44
2022-12-16T15:57:21.294Z,100305.84
2022-12-16T16:00:19.086Z,100332.44
2022-12-16T16:03:08.106Z,100293.00
2022-12-16T16:05:55.064Z,100311.88
2022-12-16T16:08:40.218Z,100271.53
2022-12-16T16:11:27.114Z,100303.28
2022-12-16T16:14:14.313Z,100317.81
2022-12-16T16:16:59.800Z,100273.22
2022-12-16T16:19:46.178Z,100220.97
2022-12-16T16:22:33.938Z,100313.50
2022-12-16T16:25:19.088Z,100284.38
2022-12-16T16:28:04.966Z,100228.66
2022-12-16T16:30:50.312Z,100267.22
2022-12-16T16:33:35.870Z,100274.13
2022-12-16T16:36:32.883Z,100265.56
2022-12-16T16:39:18.130Z,100234.69
2022-12-16T16:42:03.569Z,100274.13
2022-12-16T16:44:48.859Z,100257.81
2022-12-16T16:47:36.300Z,100264.66
2022-12-16T16:50:21.540Z,100263.00
2022-12-16T16:53:07.004Z,100301.53
2022-12-16T16:55:52.342Z,100266.41
2022-12-16T16:58:46.492Z,100249.28
2022-12-16T17:01:34.055Z,100277.56
2022-12-16T17:04:19.599Z,100295.56
2022-12-16T17:07:05.242Z,100267.31
2022-12-16T17:09:50.458Z,100267.28
2022-12-16T17:12:45.904Z,100226.13
2022-12-16T17:15:50.076Z,100278.41
2022-12-16T17:18:37.694Z,100290.41
2022-12-16T17:21:26.692Z,100267.25
2022-12-16T17:24:12.230Z,100230.38
2022-12-16T17:27:02.052Z,100284.34
2022-12-16T17:29:48.663Z,100273.16
2022-12-16T17:32:33.901Z,100246.59
2022-12-16T17:35:19.513Z,100261.94
2022-12-16T17:38:04.973Z,100251.59
2022-12-16T17:40:50.306Z,100238.72
2022-12-16T17:43:36.767Z,100238.56
2022-12-16T17:46:25.545Z,100229.81
2022-12-16T17:49:14.864Z,100242.53
2022-12-16T17:52:01.846Z,100287.06
2022-12-16T17:55:08.407Z,100233.13
2022-12-16T17:57:54.222Z,100267.34
2022-12-16T18:00:39.628Z,100282.00
2022-12-16T18:03:25.862Z,100246.88
2022-12-16T18:06:16.214Z,100238.38
2022-12-16T18:09:01.685Z,100266.50
2022-12-16T18:11:47.013Z,100235.72
2022-12-16T18:14:32.472Z,100231.47
2022-12-16T18:17:18.072Z,100209.19
2022-12-16T18:20:03.492Z,100241.63
2022-12-16T18:22:51.080Z,100244.22
2022-12-16T18:25:37.299Z,100234.91
2022-12-16T18:28:23.176Z,100248.34
2022-12-16T18:31:08.812Z,100254.22
2022-12-16T18:33:54.242Z,100277.53
2022-12-16T18:36:39.574Z,100254.41
2022-12-16T18:39:25.356Z,100238.97
2022-12-16T18:42:10.892Z,100214.16
2022-12-16T18:45:00.836Z,100243.19
2022-12-16T18:47:47.294Z,100234.50
2022-12-16T18:50:37.967Z,100243.09
2022-12-16T18:53:27.723Z,100196.84
2022-12-16T18:56:24.996Z,100195.81
2022-12-16T18:59:12.845Z,100241.97
2022-12-16T19:01:59.240Z,100193.31
2022-12-16T19:04:45.622Z,100266.22
2022-12-16T19:07:33.819Z,100207.03
2022-12-16T19:10:19.987Z,100245.44
2022-12-16T19:13:05.420Z,100235.31
2022-12-16T19:15:50.832Z,100219.88
2022-12-16T19:18:36.600Z,100272.88
2022-12-16T19:21:21.971Z,100222.28
2022-12-16T19:24:08.232Z,100232.63
2022-12-16T19:26:56.647Z,100214.66
2022-12-16T19:29:42.394Z,100234.16
2022-12-16T19:32:27.913Z,100234.13
2022-12-16T19:35:13.422Z,100236.72
2022-12-16T19:37:58.954Z,100254.69
2022-12-16T19:40:44.181Z,100266.56
2022-12-16T19:43:29.931Z,100235.00
2022-12-16T19:46:15.902Z,100239.16
2022-12-16T19:49:01.480Z,100237.66
2022-12-16T19:51:46.907Z,100247.06
2022-12-16T19:54:32.163Z,100235.13
2022-12-16T19:57:17.349Z,100253.94
2022-12-16T20:00:02.684Z,100245.41
2022-12-16T20:02:48.182Z,100221.44
2022-12-16T20:05:34.046Z,100247.97
2022-12-16T20:08:19.365Z,100246.22
2022-12-16T20:11:04.879Z,100253.06
2022-12-16T20:13:50.375Z,100220.50
2022-12-16T20:16:35.767Z,100255.72
2022-12-16T20:19:21.468Z,100228.31
2022-12-16T20:22:08.272Z,100260.88
2022-12-16T20:24:57.424Z,100224.84
2022-12-16T20:27:42.681Z,100176.03
2022-12-16T20:30:29.044Z,100246.16
2022-12-16T20:33:14.246Z,100242.88
2022-12-16T20:35:59.672Z,100280.41
2022-12-16T20:38:44.972Z,100240.13
2022-12-16T20:41:30.389Z,100187.88
2022-12-16T20:44:15.627Z,100226.38
2022-12-16T20:47:01.726Z,100238.47
2022-12-16T20:49:47.141Z,100251.97
2022-12-16T20:52:32.439Z,100238.44
2022-12-16T20:55:17.496Z,100232.63
2022-12-16T20:58:02.744Z,100237.09
2022-12-16T21:00:48.024Z,100262.06
2022-12-16T21:03:39.605Z,100250.06
2022-12-16T21:06:25.292Z,100285.19
2022-12-16T21:09:10.454Z,100232.00
2022-12-16T21:11:56.188Z,100269.69
2022-12-16T21:15:01.474Z,100232.09
2022-12-16T21:17:46.571Z,100247.59
2022-12-16T21:20:32.589Z,100269.94
2022-12-16T21:23:19.806Z,100280.97
2022-12-16T21:26:05.072Z,100269.72
2022-12-16T21:28:50.559Z,100237.09
2022-12-16T21:31:37.356Z,100282.50
2022-12-16T21:34:25.489Z,100263.78
2022-12-16T21:37:11.094Z,100283.44
2022-12-16T21:39:55.998Z,100274.09
2022-12-16T21:42:44.033Z,100286.88
2022-12-16T21:45:29.818Z,100260.38
2022-12-16T21:48:15.027Z,100288.56
2022-12-16T21:51:00.364Z,100261.94
2022-12-16T21:53:45.944Z,100248.28
2022-12-16T21:56:31.339Z,100282.59
2022-12-16T21:59:16.782Z,100274.75
2022-12-16T22:02:02.195Z,100291.81
2022-12-16T22:04:47.507Z,100281.47
2022-12-16T22:07:32.732Z,100245.56
2022-12-16T22:10:17.757Z,100269.50
2022-12-16T22:13:02.952Z,100301.25
2022-12-16T22:15:48.220Z,100297.91
2022-12-16T22:18:35.961Z,100309.06
2022-12-16T22:21:24.242Z,100297.91
2022-12-16T22:24:10.631Z,100306.44
2022-12-16T22:26:56.634Z,100289.44
2022-12-16T22:29:42.022Z,100313.38
2022-12-16T22:32:27.646Z,100292.72
2022-12-16T22:35:12.767Z,100301.22
2022-12-16T22:37:58.258Z,100294.34
2022-12-16T22:40:43.564Z,100281.44
2022-12-16T22:43:28.874Z,100277.06
2022-12-16T22:46:18.645Z,100270.25
2022-12-16T22:49:08.056Z,100291.66
2022-12-16T22:51:53.820Z,100295.06
2022-12-16T22:54:39.417Z,100284.88
2022-12-16T22:57:24.481Z,100263.38
2022-12-16T23:00:09.729Z,100247.97
2022-12-16T23:02:55.370Z,100310.59
2022-12-16T23:05:42.127Z,100276.41
2022-12-16T23:08:27.306Z,100313.16
2022-12-16T23:11:17.554Z,100320.91
2022-12-16T23:14:03.253Z,100317.50
2022-12-16T23:16:48.660Z,100321.72
2022-12-16T23:19:33.993Z,100314.88
2022-12-16T23:22:19.273Z,100310.72
2022-12-16T23:25:04.502Z,100290.16
2022-12-16T23:27:49.849Z,100284.28
2022-12-16T23:30:35.160Z,100265.34
2022-12-16T23:33:21.539Z,100335.47
2022-12-16T23:36:06.828Z,100315.81
2022-12-16T23:38:52.097Z,100329.59
2022-12-16T23:41:38.699Z,100322.75
2022-12-16T23:44:23.859Z,100321.94
2022-12-16T23:47:09.190Z,100294.56
2022-12-16T23:49:56.459Z,100310.09
2022-12-16T23:52:42.088Z,100304.94
2022-12-16T23:55:27.776Z,100310.94
2022-12-16T23:58:22.160Z,100334.03
